createdAt,value
2018-05-11T03:01:06.287Z,19.30
2018-05-11T03:02:06.401Z,14.00
2018-05-11T03:03:06.552Z,13.10
2018-05-11T03:04:06.664Z,12.60
2018-05-11T03:05:07.767Z,13.40
2018-05-11T03:06:07.036Z,14.80
2018-05-11T03:07:07.215Z,14.40
2018-05-11T03:08:08.229Z,14.60
2018-05-11T03:09:07.542Z,14.50
2018-05-11T03:10:07.704Z,14.80
2018-05-11T03:11:07.856Z,13.80
2018-05-11T03:12:08.061Z,13.60
2018-05-11T03:13:08.210Z,14.60
2018-05-11T03:14:08.378Z,13.70
2018-05-11T03:15:08.498Z,14.60
2018-05-11T03:16:08.700Z,14.90
2018-05-11T03:17:08.875Z,13.50
2018-05-11T03:18:09.059Z,14.40
2018-05-11T03:19:09.199Z,13.80
2018-05-11T03:20:09.354Z,13.80
2018-05-11T03:21:09.554Z,14.80
2018-05-11T03:22:09.723Z,14.80
2018-05-11T03:23:09.851Z,15.20
2018-05-11T03:24:10.068Z,14.50
2018-05-11T03:25:10.192Z,14.00
2018-05-11T03:26:10.346Z,15.20
2018-05-11T03:27:11.294Z,14.70
2018-05-11T03:28:10.655Z,14.40
2018-05-11T03:29:10.881Z,14.80
2018-05-11T03:30:11.036Z,14.40
2018-05-11T03:31:11.195Z,14.80
2018-05-11T03:32:11.362Z,15.00
2018-05-11T03:33:11.488Z,13.80
2018-05-11T03:34:11.705Z,14.40
2018-05-11T03:35:24.588Z,13.90
2018-05-11T03:37:15.003Z,14.00
2018-05-11T03:38:15.871Z,15.00
2018-05-11T03:39:15.144Z,14.20
2018-05-11T03:40:15.063Z,15.00
2018-05-11T03:41:15.408Z,17.60
2018-05-11T03:42:13.294Z,17.60
2018-05-11T03:43:13.262Z,16.60
2018-05-11T03:44:13.475Z,15.50
2018-05-11T03:45:14.299Z,15.60
2018-05-11T03:46:13.730Z,15.70
2018-05-11T03:47:13.988Z,14.90
2018-05-11T03:48:14.035Z,15.50
2018-05-11T03:49:14.213Z,15.40
2018-05-11T03:50:14.388Z,16.20
2018-05-11T03:51:14.571Z,14.80
2018-05-11T03:52:14.751Z,15.50
2018-05-11T03:53:15.060Z,14.90
2018-05-11T03:54:15.045Z,15.50
2018-05-11T03:55:15.161Z,14.60
2018-05-11T03:56:15.385Z,15.40
2018-05-11T03:57:15.479Z,15.10
2018-05-11T03:58:15.716Z,14.60
2018-05-11T03:59:15.827Z,15.20
2018-05-11T04:00:15.953Z,15.20
2018-05-11T04:01:16.300Z,15.30
2018-05-11T04:02:16.341Z,15.20
2018-05-11T04:03:16.547Z,14.70
2018-05-11T04:04:16.711Z,14.80
2018-05-11T04:05:16.855Z,14.30
2018-05-11T04:06:17.013Z,14.20
2018-05-11T04:07:17.250Z,14.50
2018-05-11T04:08:17.320Z,14.90
2018-05-11T04:09:17.502Z,14.80
2018-05-11T04:10:17.613Z,14.00
2018-05-11T04:11:18.391Z,14.50
2018-05-11T04:12:18.893Z,14.90
2018-05-11T04:13:18.315Z,14.40
2018-05-11T04:14:18.645Z,14.90
2018-05-11T04:15:18.734Z,15.10
2018-05-11T04:16:19.018Z,15.90
2018-05-11T04:17:19.328Z,16.40
2018-05-11T04:18:19.864Z,16.00
2018-05-11T04:19:19.307Z,14.50
2018-05-11T04:20:19.425Z,14.60
2018-05-11T04:21:19.566Z,14.70
2018-05-11T04:22:19.759Z,14.30
2018-05-11T04:29:04.820Z,13.40
2018-05-11T04:30:05.872Z,13.30
2018-05-11T04:41:09.903Z,14.20
2018-05-11T04:42:09.397Z,14.50
2018-05-11T04:43:09.562Z,13.80
2018-05-11T04:44:14.018Z,14.00
2018-05-11T04:45:21.703Z,14.40
2018-05-11T04:46:12.385Z,14.10
2018-05-11T04:47:12.594Z,14.80
2018-05-11T04:48:12.346Z,15.10
2018-05-11T04:49:13.604Z,15.20
2018-05-11T04:50:11.003Z,15.20
2018-05-11T04:51:10.916Z,16.00
2018-05-11T04:52:11.127Z,14.30
2018-05-11T04:53:11.347Z,15.50
2018-05-11T04:54:11.423Z,16.00
2018-05-11T04:55:14.604Z,15.70
2018-05-11T04:56:11.804Z,15.70
2018-05-11T04:57:12.105Z,15.40
2018-05-11T04:58:14.103Z,14.90
2018-05-11T04:59:27.163Z,14.30
2018-05-11T05:00:12.672Z,14.60
2018-05-11T05:01:12.835Z,14.20
2018-05-11T05:02:12.980Z,14.60
2018-05-11T05:03:13.077Z,15.10
2018-05-11T05:04:15.992Z,14.50
2018-05-11T05:05:13.440Z,14.70
2018-05-11T05:06:25.433Z,14.80
2018-05-11T05:08:51.076Z,14.90
2018-05-11T05:09:51.515Z,15.00
2018-05-11T05:10:52.083Z,14.90
2018-05-11T05:11:51.780Z,14.40
2018-05-11T05:13:00.651Z,15.10
2018-05-11T05:13:51.975Z,15.10
2018-05-11T05:14:53.196Z,14.90
2018-05-11T05:15:52.677Z,15.10
2018-05-11T05:18:46.072Z,14.60
2018-05-11T05:19:57.194Z,14.60
2018-05-11T05:20:46.021Z,15.80
2018-05-11T05:21:44.309Z,15.20
2018-05-11T05:22:44.490Z,15.40
2018-05-11T05:23:44.844Z,14.80
2018-05-11T05:24:44.753Z,15.00
2018-05-11T05:25:44.871Z,14.00
2018-05-11T05:26:45.015Z,15.10
2018-05-11T05:27:46.028Z,15.30
2018-05-11T05:28:45.313Z,14.70
2018-05-11T05:29:45.514Z,14.10
2018-05-11T05:30:46.475Z,15.10
2018-05-11T05:31:45.814Z,15.10
2018-05-11T05:32:46.926Z,15.40
2018-05-11T05:33:46.260Z,15.10
2018-05-11T05:34:46.372Z,14.30
2018-05-11T05:35:46.542Z,14.10
2018-05-11T05:36:46.700Z,14.30
2018-05-11T05:37:46.891Z,14.20
2018-05-11T05:38:47.018Z,14.40
2018-05-11T05:39:47.227Z,14.40
2018-05-11T05:40:47.402Z,14.70
2018-05-11T05:41:47.526Z,15.10
2018-05-11T05:42:47.715Z,14.60
2018-05-11T05:43:49.469Z,14.80
2018-05-11T05:44:47.998Z,15.50
2018-05-11T05:45:48.330Z,15.40
2018-05-11T05:46:48.372Z,14.60
2018-05-11T05:47:49.524Z,14.90
2018-05-11T05:48:48.787Z,14.20
2018-05-11T05:49:48.948Z,14.70
2018-05-11T05:50:49.072Z,14.40
2018-05-11T05:51:49.234Z,15.00
2018-05-11T05:52:50.817Z,15.20
2018-05-11T05:53:50.546Z,14.30
2018-05-11T05:54:49.877Z,15.00
2018-05-11T05:55:50.008Z,15.00
2018-05-11T05:56:50.161Z,15.10
2018-05-11T05:57:50.327Z,15.40
2018-05-11T05:58:50.443Z,14.10
2018-05-11T05:59:50.756Z,13.80
2018-05-11T06:00:50.874Z,14.70
2018-05-11T06:01:51.007Z,13.70
2018-05-11T06:02:51.146Z,14.70
2018-05-11T06:03:51.310Z,14.20
2018-05-11T06:04:51.483Z,14.90
2018-05-11T06:05:51.659Z,14.40
2018-05-11T06:06:51.830Z,13.60
2018-05-11T06:07:52.005Z,13.90
2018-05-11T06:08:52.097Z,13.60
2018-05-11T06:09:52.240Z,13.90
2018-05-11T06:10:52.535Z,14.40
2018-05-11T06:11:52.658Z,14.00
2018-05-11T06:12:52.850Z,13.60
2018-05-11T06:13:52.990Z,13.80
2018-05-11T06:14:53.155Z,13.50
2018-05-11T06:15:53.291Z,13.40
2018-05-11T06:16:53.420Z,13.70
2018-05-11T06:17:54.437Z,13.20
2018-05-11T06:18:53.764Z,12.90
2018-05-11T06:19:53.872Z,13.00
2018-05-11T06:20:54.061Z,12.90
2018-05-11T06:21:54.891Z,12.50
2018-05-11T06:22:54.383Z,11.50
2018-05-11T06:23:54.561Z,13.20
2018-05-11T06:24:54.781Z,11.90
2018-05-11T06:25:54.907Z,11.80
2018-05-11T06:26:54.988Z,12.10
2018-05-11T06:27:55.186Z,11.70
2018-05-11T06:28:55.319Z,11.20
2018-05-11T06:29:55.515Z,11.40
2018-05-11T06:30:55.673Z,11.10
2018-05-11T06:31:56.396Z,11.10
2018-05-11T06:32:56.027Z,10.70
2018-05-11T06:33:57.122Z,10.90
2018-05-11T06:34:56.265Z,10.50
2018-05-11T06:35:56.530Z,10.80
2018-05-11T06:36:56.645Z,10.60
2018-05-11T06:37:56.804Z,10.80
2018-05-11T06:38:56.969Z,10.80
2018-05-11T06:39:57.169Z,10.50
2018-05-11T06:40:57.337Z,10.60
2018-05-11T06:41:57.538Z,10.70
2018-05-11T06:42:57.710Z,11.30
2018-05-11T06:43:57.919Z,11.00
2018-05-11T06:44:58.028Z,11.30
2018-05-11T06:45:58.347Z,10.60
2018-05-11T06:46:58.459Z,10.50
2018-05-11T06:47:58.598Z,11.00
2018-05-11T06:48:59.430Z,10.60
2018-05-11T06:49:58.842Z,10.50
2018-05-11T06:51:20.022Z,10.00
2018-05-11T06:51:59.237Z,10.40
2018-05-11T06:52:59.314Z,10.40
2018-05-11T06:53:59.456Z,10.50
2018-05-11T06:54:59.899Z,11.70
2018-05-11T06:56:00.455Z,12.50
2018-05-11T06:57:00.038Z,13.00
2018-05-11T06:58:00.246Z,13.30
2018-05-11T06:59:00.329Z,13.60
2018-05-11T07:00:01.029Z,12.90
2018-05-11T07:01:00.805Z,13.00
2018-05-11T07:02:00.898Z,13.50
2018-05-11T07:03:01.095Z,13.80
2018-05-11T07:04:01.259Z,13.30
2018-05-11T07:05:01.343Z,14.50
2018-05-11T07:06:01.586Z,13.60
2018-05-11T07:07:02.435Z,13.40
2018-05-11T07:08:02.002Z,14.10
2018-05-11T07:09:02.123Z,13.80
2018-05-11T07:10:02.217Z,13.80
2018-05-11T07:11:02.412Z,14.30
2018-05-11T07:12:02.567Z,13.60
2018-05-11T07:13:02.758Z,13.30
2018-05-11T07:14:02.971Z,13.70
2018-05-11T07:15:03.085Z,14.00
2018-05-11T07:17:36.525Z,13.40
2018-05-11T07:18:38.761Z,14.10
2018-05-11T07:19:38.914Z,14.70
2018-05-11T07:20:39.497Z,13.90
2018-05-11T07:22:42.749Z,13.60
2018-05-11T07:23:38.413Z,14.00
2018-05-11T07:29:28.657Z,14.30
2018-05-11T07:30:29.176Z,14.20
2018-05-11T07:31:29.125Z,14.00
2018-05-11T07:32:29.305Z,13.40
2018-05-11T07:33:29.720Z,13.40
2018-05-11T07:34:37.246Z,14.10
2018-05-11T07:35:30.085Z,13.30
2018-05-11T07:36:30.051Z,13.80
2018-05-11T07:37:36.464Z,13.70
2018-05-11T07:38:30.371Z,13.80
2018-05-11T07:39:31.321Z,13.90
2018-05-11T07:40:30.750Z,14.40
2018-05-11T07:41:31.964Z,14.20
2018-05-11T07:42:31.098Z,13.70
2018-05-11T07:43:33.775Z,13.60
2018-05-11T07:44:33.107Z,13.60
2018-05-11T07:45:32.568Z,12.50
2018-05-11T07:46:32.104Z,12.70
2018-05-11T07:50:26.224Z,12.80
2018-05-11T07:51:30.156Z,12.80
2018-05-11T07:52:27.014Z,12.40
2018-05-11T07:53:27.654Z,13.10
2018-05-11T07:54:27.004Z,13.50
2018-05-11T07:55:27.677Z,13.30
2018-05-11T07:56:36.564Z,13.40
2018-05-11T07:57:28.567Z,13.00
2018-05-11T07:58:28.311Z,13.00
2018-05-11T08:00:29.530Z,13.40
2018-05-11T08:01:43.301Z,13.50
2018-05-11T08:02:30.798Z,13.40
2018-05-11T08:03:41.505Z,12.30
2018-05-11T08:04:30.862Z,12.80
2018-05-11T08:05:30.806Z,12.20
2018-05-11T08:06:29.112Z,12.90
2018-05-11T08:07:29.510Z,12.50
2018-05-11T08:09:31.251Z,11.40
2018-05-11T08:10:30.265Z,11.50
2018-05-11T08:11:30.068Z,12.40
2018-05-11T08:12:30.227Z,12.20
2018-05-11T08:13:30.112Z,11.40
2018-05-11T08:14:30.417Z,11.60
2018-05-11T08:15:32.394Z,11.70
2018-05-11T08:16:29.466Z,11.90
2018-05-11T08:17:29.080Z,12.30
2018-05-11T08:18:28.818Z,11.60
2018-05-11T08:19:29.660Z,11.40
2018-05-11T08:20:29.419Z,10.70
2018-05-11T08:21:30.971Z,10.80
2018-05-11T08:22:30.277Z,10.90
2018-05-11T08:25:06.020Z,9.90
2018-05-11T08:26:05.116Z,10.50
2018-05-11T08:27:06.092Z,10.10
2018-05-11T08:28:06.447Z,10.30
2018-05-11T08:29:07.008Z,10.00
2018-05-11T08:30:06.190Z,10.30
2018-05-11T08:31:06.804Z,9.50
2018-05-11T08:32:08.809Z,9.80
2018-05-11T08:34:05.852Z,9.50
2018-05-11T08:35:05.326Z,9.40
2018-05-11T08:36:04.883Z,9.90
2018-05-11T08:37:05.069Z,9.30
2018-05-11T08:38:05.414Z,8.80
2018-05-11T08:40:46.104Z,9.10
2018-05-11T08:42:42.088Z,9.70
2018-05-11T08:43:42.204Z,9.00
2018-05-11T08:44:42.288Z,8.90
2018-05-11T08:45:42.950Z,9.00
2018-05-11T08:46:42.795Z,8.40
2018-05-11T08:47:43.493Z,8.20
2018-05-11T08:48:43.988Z,9.20
2018-05-11T08:49:43.412Z,8.40
2018-05-11T08:50:43.678Z,7.80
2018-05-11T08:51:44.065Z,8.80
2018-05-11T08:52:43.527Z,8.10
2018-05-11T08:53:41.768Z,8.90
2018-05-11T08:54:42.076Z,8.40
2018-05-11T08:55:42.074Z,8.30
2018-05-11T08:58:17.579Z,8.00
2018-05-11T08:59:18.136Z,8.50
2018-05-11T09:00:18.288Z,7.90
2018-05-11T09:01:18.491Z,7.40
2018-05-11T09:02:19.944Z,7.30
2018-05-11T09:03:18.614Z,7.00
2018-05-11T09:04:20.111Z,7.10
2018-05-11T09:05:18.992Z,7.80
2018-05-11T09:06:19.080Z,8.20
2018-05-11T09:07:19.318Z,7.40
2018-05-11T09:08:19.283Z,7.70
2018-05-11T09:09:19.545Z,7.20
2018-05-11T09:10:19.926Z,6.70
2018-05-11T09:13:20.430Z,7.40
2018-05-11T09:14:20.720Z,7.70
2018-05-11T09:15:23.294Z,7.30
2018-05-11T09:16:22.932Z,7.80
2018-05-11T09:18:22.363Z,7.90
2018-05-11T09:19:23.276Z,7.40
2018-05-11T09:20:22.041Z,8.00
2018-05-11T09:21:20.115Z,7.30
2018-05-11T09:22:19.418Z,8.10
2018-05-11T09:25:47.569Z,8.10
2018-05-11T09:28:40.208Z,8.40
2018-05-11T09:29:35.511Z,7.80
2018-05-11T09:32:52.329Z,7.30
2018-05-11T09:33:52.476Z,7.00
2018-05-11T09:35:00.283Z,8.10
2018-05-11T09:35:51.814Z,9.00
2018-05-11T09:36:56.520Z,8.30
2018-05-11T09:37:52.438Z,8.80
2018-05-11T09:38:52.782Z,8.40
2018-05-11T09:39:53.334Z,8.60
2018-05-11T09:40:51.881Z,7.90
2018-05-11T09:41:51.517Z,8.20
2018-05-11T09:42:50.992Z,8.00
2018-05-11T09:43:51.241Z,8.40
2018-05-11T09:44:52.668Z,7.50
2018-05-11T09:45:53.281Z,7.70
2018-05-11T09:46:52.481Z,7.90
2018-05-11T09:47:51.901Z,7.30
2018-05-11T09:48:51.715Z,7.60
2018-05-11T09:51:27.150Z,7.30
2018-05-11T09:52:29.107Z,6.70
2018-05-11T09:53:29.499Z,6.80
2018-05-11T09:54:28.470Z,7.40
2018-05-11T09:55:30.923Z,7.00
2018-05-11T09:56:28.567Z,6.10
2018-05-11T09:57:29.672Z,6.80
2018-05-11T09:58:27.938Z,6.20
2018-05-11T09:59:26.678Z,7.30
2018-05-11T10:00:27.705Z,6.10
2018-05-11T10:01:27.161Z,6.80
2018-05-11T10:02:27.147Z,6.70
2018-05-11T10:03:27.346Z,6.60
2018-05-11T10:04:27.705Z,6.50
2018-05-11T10:05:28.961Z,6.50
2018-05-11T10:06:28.568Z,6.40
2018-05-11T10:07:28.121Z,6.80
2018-05-11T10:08:28.420Z,6.30
2018-05-11T10:09:28.754Z,6.20
2018-05-11T10:10:28.939Z,6.30
2018-05-11T10:11:29.046Z,6.60
2018-05-11T10:12:28.988Z,6.20
2018-05-11T10:13:29.559Z,6.00
2018-05-11T10:14:29.280Z,6.50
2018-05-11T10:15:30.447Z,6.00
2018-05-11T10:16:30.054Z,6.10
2018-05-11T10:17:30.008Z,5.80
2018-05-11T10:18:30.166Z,6.10
2018-05-11T10:19:30.790Z,5.40
2018-05-11T10:20:33.347Z,5.10
2018-05-11T10:21:31.171Z,5.50
2018-05-11T10:22:30.859Z,6.80
2018-05-11T10:23:31.186Z,6.10
2018-05-11T10:24:32.940Z,6.10
2018-05-11T10:25:31.493Z,5.80
2018-05-11T10:26:32.332Z,6.20
2018-05-11T10:27:31.957Z,5.70
2018-05-11T10:28:32.340Z,5.90
2018-05-11T10:29:32.037Z,5.80
2018-05-11T10:30:32.337Z,5.10
2018-05-11T10:32:32.562Z,5.20
2018-05-11T10:33:32.894Z,5.30
2018-05-11T10:34:33.135Z,5.80
2018-05-11T10:42:10.268Z,4.80
2018-05-11T10:43:07.189Z,4.80
2018-05-11T10:44:10.986Z,5.10
2018-05-11T10:46:13.180Z,4.50
2018-05-11T10:47:07.619Z,4.60
2018-05-11T10:49:08.892Z,4.90
2018-05-11T10:50:06.102Z,5.60
2018-05-11T10:51:06.200Z,5.20
2018-05-11T10:53:43.461Z,4.30
2018-05-11T10:57:54.808Z,4.00
2018-05-11T11:07:44.476Z,4.60
2018-05-11T11:11:37.056Z,4.60
2018-05-11T11:12:37.289Z,4.00
2018-05-11T11:13:34.224Z,4.30
2018-05-11T11:14:34.093Z,3.80
2018-05-11T11:15:34.259Z,4.00
2018-05-11T11:16:34.357Z,4.70
2018-05-11T11:17:34.547Z,4.60
2018-05-11T11:18:35.382Z,5.10
2018-05-11T11:19:49.879Z,4.30
2018-05-11T11:20:41.850Z,4.40
2018-05-11T11:21:35.173Z,4.60
2018-05-11T11:22:35.345Z,3.90
2018-05-11T11:23:35.468Z,4.80
2018-05-11T11:24:35.645Z,4.80
2018-05-11T11:25:36.318Z,4.60
2018-05-11T11:26:36.014Z,4.70
2018-05-11T11:27:36.214Z,4.70
2018-05-11T11:28:36.363Z,4.70
2018-05-11T11:29:37.315Z,4.30
2018-05-11T11:30:36.774Z,5.00
2018-05-11T11:31:36.961Z,5.00
2018-05-11T11:32:37.085Z,4.60
2018-05-11T11:33:37.353Z,4.90
2018-05-11T11:34:37.515Z,4.90
2018-05-11T11:35:37.625Z,5.50
2018-05-11T11:36:37.839Z,5.00
2018-05-11T11:37:37.923Z,4.40
2018-05-11T11:38:38.153Z,4.60
2018-05-11T11:39:38.331Z,4.70
2018-05-11T11:40:38.495Z,5.00
2018-05-11T11:41:38.688Z,4.80
2018-05-11T11:42:38.785Z,4.70
2018-05-11T11:43:38.993Z,4.90
2018-05-11T11:44:39.154Z,4.70
2018-05-11T11:45:39.388Z,4.80
2018-05-11T11:46:39.521Z,5.30
2018-05-11T11:47:54.297Z,4.90
2018-05-11T11:48:40.866Z,4.80
2018-05-11T11:49:40.030Z,4.80
2018-05-11T11:50:40.249Z,4.50
2018-05-11T11:51:40.414Z,4.60
2018-05-11T11:52:43.315Z,4.30
2018-05-11T11:53:40.752Z,4.50
2018-05-11T11:54:42.887Z,4.80
2018-05-11T11:55:41.086Z,4.40
2018-05-11T11:56:42.847Z,4.30
2018-05-11T11:57:41.532Z,4.70
2018-05-11T11:58:41.655Z,4.60
2018-05-11T11:59:41.826Z,4.50
2018-05-11T12:00:42.019Z,4.40
2018-05-11T12:01:42.904Z,4.70
2018-05-11T12:02:42.430Z,4.30
2018-05-11T12:03:43.328Z,4.10
2018-05-11T12:04:42.787Z,4.60
2018-05-11T12:05:43.844Z,4.90
2018-05-11T12:06:43.188Z,4.90
2018-05-11T12:07:43.330Z,5.30
2018-05-11T12:08:43.441Z,4.70
2018-05-11T12:09:43.619Z,4.70
2018-05-11T12:10:43.818Z,4.50
2018-05-11T12:11:43.988Z,4.10
2018-05-11T12:12:44.145Z,4.00
2018-05-11T12:13:44.302Z,4.00
2018-05-11T12:14:44.452Z,4.40
2018-05-11T12:15:44.633Z,4.50
2018-05-11T12:16:44.810Z,5.10
2018-05-11T12:17:45.006Z,4.50
2018-05-11T12:18:45.140Z,4.30
2018-05-11T12:19:45.320Z,3.90
2018-05-11T12:20:45.451Z,3.90
2018-05-11T12:21:45.631Z,4.50
2018-05-11T12:22:45.815Z,4.30
2018-05-11T12:23:46.024Z,3.70
2018-05-11T12:24:46.201Z,3.60
2018-05-11T12:25:46.347Z,4.20
2018-05-11T12:26:46.501Z,3.80
2018-05-11T12:27:47.360Z,3.30
2018-05-11T12:28:48.869Z,3.90
2018-05-11T12:30:08.045Z,3.30
2018-05-11T12:30:47.111Z,3.30
2018-05-11T12:31:47.345Z,3.20
2018-05-11T12:32:48.327Z,3.50
2018-05-11T12:33:47.644Z,4.40
2018-05-11T12:34:47.944Z,3.30
2018-05-11T12:35:47.968Z,2.90
2018-05-11T12:36:48.093Z,3.40
2018-05-11T12:37:48.304Z,3.70
2018-05-11T12:38:48.487Z,3.70
2018-05-11T12:39:48.665Z,3.50
2018-05-11T12:40:48.818Z,3.80
2018-05-11T12:41:48.970Z,3.10
2018-05-11T12:42:49.200Z,3.00
2018-05-11T12:43:49.333Z,3.90
2018-05-11T12:44:50.360Z,3.40
2018-05-11T12:45:49.663Z,2.90
2018-05-11T12:47:11.352Z,3.20
2018-05-11T12:47:50.857Z,3.60
2018-05-11T12:48:50.157Z,3.40
2018-05-11T12:49:50.320Z,3.20
2018-05-11T12:50:50.618Z,3.30
2018-05-11T12:51:50.727Z,3.60
2018-05-11T12:52:50.892Z,3.50
2018-05-11T12:53:51.069Z,3.30
2018-05-11T12:54:51.196Z,3.40
2018-05-11T12:55:51.351Z,3.40
2018-05-11T12:56:53.404Z,3.60
2018-05-11T12:57:52.383Z,3.20
2018-05-11T12:58:51.868Z,3.20
2018-05-11T12:59:52.101Z,3.10
2018-05-11T13:00:52.259Z,3.10
2018-05-11T13:01:52.452Z,3.20
2018-05-11T13:02:52.612Z,2.60
2018-05-11T13:03:52.772Z,3.20
2018-05-11T13:04:52.977Z,3.20
2018-05-11T13:05:53.150Z,3.00
2018-05-11T13:06:53.288Z,2.80
2018-05-11T13:07:53.466Z,3.50
2018-05-11T13:08:53.682Z,3.20
2018-05-11T13:09:53.786Z,2.80
2018-05-11T13:10:53.928Z,2.90
2018-05-11T13:11:54.101Z,3.30
2018-05-11T13:12:54.286Z,3.10
2018-05-11T13:13:54.450Z,2.90
2018-05-11T13:14:54.607Z,3.10
2018-05-11T13:15:54.849Z,3.10
2018-05-11T13:16:54.991Z,2.90
2018-05-11T13:17:55.877Z,2.70
2018-05-11T13:18:55.429Z,2.90
2018-05-11T13:19:55.613Z,2.70
2018-05-11T13:20:55.697Z,2.70
2018-05-11T13:21:55.881Z,2.90
2018-05-11T13:22:56.020Z,3.20
2018-05-11T13:23:56.227Z,3.00
2018-05-11T13:27:28.676Z,3.20
2018-05-11T13:28:28.804Z,2.90
2018-05-11T13:29:43.744Z,2.90
2018-05-11T13:30:29.164Z,3.20
2018-05-11T13:31:29.333Z,2.80
2018-05-11T13:32:29.459Z,2.90
2018-05-11T13:33:29.621Z,2.90
2018-05-11T13:37:34.639Z,3.00
2018-05-11T13:38:35.104Z,3.10
2018-05-11T13:39:34.351Z,3.20
2018-05-11T13:42:06.860Z,3.00
2018-05-11T13:43:06.907Z,3.10
2018-05-11T13:44:07.123Z,3.10
2018-05-11T13:45:14.234Z,3.10
2018-05-11T13:46:07.333Z,3.10
2018-05-11T13:47:07.478Z,3.50
2018-05-11T13:48:07.672Z,3.10
2018-05-11T13:49:07.811Z,3.00
2018-05-11T13:50:07.996Z,2.80
2018-05-11T13:51:08.222Z,3.20
2018-05-11T13:52:09.156Z,2.90
2018-05-11T13:53:09.123Z,3.00
2018-05-11T13:54:08.609Z,2.70
2018-05-11T13:55:08.734Z,3.10
2018-05-11T13:56:08.933Z,3.20
2018-05-11T13:57:09.088Z,2.80
2018-05-11T13:58:09.344Z,3.10
2018-05-11T13:59:09.439Z,2.80
2018-05-11T14:00:09.599Z,2.90
2018-05-11T14:01:09.835Z,2.70
2018-05-11T14:02:10.031Z,2.80
2018-05-11T14:03:10.208Z,2.70
2018-05-11T14:04:10.293Z,2.90
2018-05-11T14:05:10.487Z,2.80
2018-05-11T14:06:10.657Z,2.80
2018-05-11T14:07:10.814Z,2.60
2018-05-11T14:08:11.705Z,2.70
2018-05-11T14:09:11.230Z,2.80
2018-05-11T14:10:11.416Z,2.90
2018-05-11T14:11:11.539Z,2.80
2018-05-11T14:12:11.717Z,2.70
2018-05-11T14:13:11.854Z,3.10
2018-05-11T14:14:12.073Z,2.70
2018-05-11T14:15:12.181Z,2.50
2018-05-11T14:16:12.418Z,3.20
2018-05-11T14:17:12.613Z,2.60
2018-05-11T14:18:12.719Z,2.40
2018-05-11T14:19:12.920Z,2.70
2018-05-11T14:20:13.038Z,2.60
2018-05-11T14:21:13.290Z,2.80
2018-05-11T14:22:13.410Z,3.10
2018-05-11T14:23:13.574Z,2.70
2018-05-11T14:24:13.690Z,3.10
2018-05-11T14:25:13.895Z,2.80
2018-05-11T14:26:14.077Z,2.90
2018-05-11T14:27:14.236Z,2.70
2018-05-11T14:28:15.151Z,3.00
2018-05-11T14:29:14.635Z,3.00
2018-05-11T14:30:14.788Z,2.90
2018-05-11T14:31:14.937Z,3.00
2018-05-11T14:32:15.113Z,2.90
2018-05-11T14:33:15.271Z,2.80
2018-05-11T14:34:15.441Z,2.60
2018-05-11T14:35:16.198Z,3.10
2018-05-11T14:36:18.671Z,2.90
2018-05-11T14:37:15.975Z,2.80
2018-05-11T14:38:16.116Z,2.70
2018-05-11T14:39:16.252Z,2.70
2018-05-11T14:40:16.441Z,3.00
2018-05-11T14:41:16.630Z,3.00
2018-05-11T14:42:16.828Z,3.10
2018-05-11T14:43:16.995Z,2.80
2018-05-11T14:44:17.135Z,3.00
2018-05-11T14:45:17.326Z,2.70
2018-05-11T14:46:17.432Z,2.80
2018-05-11T14:47:17.618Z,2.70
2018-05-11T14:48:17.778Z,2.60
2018-05-11T14:49:17.985Z,2.80
2018-05-11T14:50:18.141Z,2.90
2018-05-11T14:51:19.171Z,2.60
2018-05-11T14:52:18.421Z,2.70
2018-05-11T14:53:18.660Z,2.70
2018-05-11T14:54:18.838Z,2.70
2018-05-11T14:55:18.977Z,2.80
2018-05-11T14:56:19.222Z,2.60
2018-05-11T14:57:19.341Z,2.70
2018-05-11T14:58:19.500Z,2.80
2018-05-11T14:59:19.718Z,2.70
2018-05-11T15:00:19.848Z,3.20
2018-05-11T15:01:20.037Z,2.90
2018-05-11T15:02:20.237Z,2.50
2018-05-11T15:03:20.445Z,2.60
2018-05-11T15:04:20.582Z,3.00
2018-05-11T15:05:21.703Z,2.50
2018-05-11T15:06:21.708Z,2.50
2018-05-11T15:07:21.122Z,2.90
2018-05-11T15:08:21.243Z,2.90
2018-05-11T15:09:21.414Z,2.60
2018-05-11T15:10:21.628Z,2.70
2018-05-11T15:11:21.773Z,3.00
2018-05-11T15:12:21.990Z,2.60
2018-05-11T15:13:22.101Z,3.30
2018-05-11T15:14:22.231Z,3.00
2018-05-11T15:15:27.206Z,3.00
2018-05-11T15:16:22.590Z,3.10
2018-05-11T15:17:22.790Z,2.60
2018-05-11T15:18:22.908Z,2.90
2018-05-11T15:19:23.130Z,3.00
2018-05-11T15:20:23.328Z,2.90
2018-05-11T15:21:24.214Z,2.80
2018-05-11T15:22:23.651Z,2.40
2018-05-11T15:23:23.784Z,2.60
2018-05-11T15:24:24.634Z,2.80
2018-05-11T15:25:24.102Z,3.00
2018-05-11T15:26:24.278Z,3.00
2018-05-11T15:27:24.475Z,2.90
2018-05-11T15:29:57.713Z,2.70
2018-05-11T15:30:58.776Z,2.80
2018-05-11T15:31:58.037Z,2.70
2018-05-11T15:32:58.223Z,3.20
2018-05-11T15:33:58.386Z,2.70
2018-05-11T15:34:59.245Z,2.70
2018-05-11T15:35:58.690Z,3.00
2018-05-11T15:36:59.764Z,3.00
2018-05-11T15:37:59.043Z,3.50
2018-05-11T15:38:59.785Z,3.20
2018-05-11T15:39:59.437Z,3.10
2018-05-11T15:41:00.291Z,3.00
2018-05-11T15:41:59.760Z,3.20
2018-05-11T15:42:59.930Z,3.10
2018-05-11T15:44:00.131Z,3.20
2018-05-11T15:45:00.297Z,3.10
2018-05-11T15:46:01.283Z,2.90
2018-05-11T15:47:00.651Z,2.70
2018-05-11T15:49:39.492Z,3.00
2018-05-11T15:50:33.138Z,3.10
2018-05-11T15:51:33.301Z,3.30
2018-05-11T15:52:33.571Z,3.10
2018-05-11T15:53:33.690Z,3.10
2018-05-11T15:54:33.873Z,3.00
2018-05-11T15:55:34.049Z,3.10
2018-05-11T15:56:34.180Z,3.10
2018-05-11T15:57:49.039Z,3.00
2018-05-11T15:58:34.580Z,3.10
2018-05-11T15:59:34.717Z,3.40
2018-05-11T16:00:34.852Z,3.20
2018-05-11T16:01:35.079Z,3.30
2018-05-11T16:02:35.233Z,3.40
2018-05-11T16:03:35.430Z,3.40
2018-05-11T16:04:35.635Z,3.10
2018-05-11T16:05:35.854Z,3.40
2018-05-11T16:06:35.941Z,3.00
2018-05-11T16:07:36.153Z,3.20
2018-05-11T16:08:36.307Z,3.10
2018-05-11T16:09:36.375Z,3.00
2018-05-11T16:10:36.664Z,2.80
2018-05-11T16:11:44.987Z,2.90
2018-05-11T16:12:37.085Z,2.90
2018-05-11T16:13:37.135Z,3.20
2018-05-11T16:14:37.314Z,3.10
2018-05-11T16:15:37.500Z,3.00
2018-05-11T16:16:37.686Z,2.70
2018-05-11T16:17:37.814Z,2.60
2018-05-11T16:18:37.986Z,3.00
2018-05-11T16:19:43.033Z,3.00
2018-05-11T16:20:39.144Z,3.00
2018-05-11T16:21:38.409Z,3.00
2018-05-11T16:22:38.601Z,2.80
2018-05-11T16:23:38.790Z,2.70
2018-05-11T16:24:38.948Z,2.90
2018-05-11T16:25:39.108Z,2.90
2018-05-11T16:26:39.285Z,3.10
2018-05-11T16:27:39.501Z,3.00
2018-05-11T16:28:39.672Z,3.30
2018-05-11T16:29:39.818Z,3.20
2018-05-11T16:30:40.036Z,3.10
2018-05-11T16:31:40.133Z,3.00
2018-05-11T16:32:40.250Z,3.40
2018-05-11T16:33:40.429Z,3.00
2018-05-11T16:34:40.593Z,3.10
2018-05-11T16:35:41.490Z,2.80
2018-05-11T16:36:40.913Z,3.00
2018-05-11T16:37:41.050Z,2.70
2018-05-11T16:38:41.249Z,3.00
2018-05-11T16:39:41.402Z,2.80
2018-05-11T16:40:41.587Z,2.90
2018-05-11T16:41:41.782Z,3.10
2018-05-11T16:42:44.580Z,3.00
2018-05-11T16:43:42.200Z,2.90
2018-05-11T16:44:42.350Z,3.20
2018-05-11T16:45:42.484Z,2.90
2018-05-11T16:46:42.864Z,2.80
2018-05-11T16:47:42.883Z,2.90
2018-05-11T16:48:43.560Z,2.70
2018-05-11T16:49:43.203Z,3.30
2018-05-11T16:50:43.387Z,3.00
2018-05-11T16:51:43.603Z,3.00
2018-05-11T16:52:43.734Z,3.20
2018-05-11T16:53:43.905Z,3.00
2018-05-11T16:54:45.014Z,3.10
2018-05-11T16:55:44.201Z,3.00
2018-05-11T16:56:44.346Z,3.20
2018-05-11T16:57:44.555Z,3.30
2018-05-11T16:58:44.655Z,3.50
2018-05-11T16:59:44.846Z,3.30
2018-05-11T17:00:45.008Z,2.90
2018-05-11T17:01:45.235Z,3.60
2018-05-11T17:02:46.028Z,3.40
2018-05-11T17:03:48.526Z,3.70
2018-05-11T17:04:45.729Z,3.60
2018-05-11T17:05:45.831Z,3.90
2018-05-11T17:06:45.990Z,3.90
2018-05-11T17:07:46.172Z,3.50
2018-05-11T17:08:46.331Z,3.50
2018-05-11T17:09:46.491Z,3.60
2018-05-11T17:10:46.642Z,3.60
2018-05-11T17:11:46.817Z,3.00
2018-05-11T17:12:47.018Z,3.10
2018-05-11T17:13:47.173Z,3.10
2018-05-11T17:14:47.323Z,3.30
2018-05-11T17:15:47.467Z,3.40
2018-05-11T17:16:47.645Z,3.60
2018-05-11T17:17:47.798Z,3.10
2018-05-11T17:18:47.958Z,3.40
2018-05-11T17:21:21.710Z,3.10
2018-05-11T17:22:21.653Z,3.10
2018-05-11T17:23:21.823Z,3.30
2018-05-11T17:24:22.015Z,3.60
2018-05-11T17:25:22.183Z,3.10
2018-05-11T17:26:23.294Z,3.60
2018-05-11T17:27:22.449Z,3.40
2018-05-11T17:28:22.634Z,3.00
2018-05-11T17:29:22.796Z,3.10
2018-05-11T17:30:23.008Z,3.50
2018-05-11T17:31:44.250Z,3.60
2018-05-11T17:32:23.303Z,3.20
2018-05-11T17:33:23.516Z,3.10
2018-05-11T17:34:23.670Z,3.20
2018-05-11T17:35:23.825Z,3.40
2018-05-11T17:36:24.031Z,3.40
2018-05-11T17:37:24.766Z,3.10
2018-05-11T17:38:24.523Z,3.40
2018-05-11T17:39:24.511Z,3.50